createdAt,value
2023-09-07T00:03:10.200Z,6.66
2023-09-07T00:05:37.788Z,6.60
2023-09-07T00:08:06.756Z,6.83
2023-09-07T00:21:32.998Z,6.89
2023-09-07T00:24:04.379Z,7.12
2023-09-07T00:32:03.882Z,6.63
2023-09-07T00:34:33.957Z,6.84
2023-09-07T00:37:02.080Z,6.76
2023-09-07T00:39:29.897Z,6.62
2023-09-07T00:44:47.399Z,6.60
2023-09-07T01:16:54.391Z,6.92
2023-09-07T01:19:52.405Z,6.74
2023-09-07T01:22:27.519Z,6.93
2023-09-07T01:25:00.240Z,6.80
2023-09-07T01:27:27.749Z,7.08
2023-09-07T01:29:54.896Z,6.70
2023-09-07T01:32:22.249Z,6.85
2023-09-07T01:34:50.250Z,6.84
2023-09-07T01:37:17.246Z,7.04
2023-09-07T01:39:44.320Z,6.78
2023-09-07T01:42:11.352Z,6.63
2023-09-07T01:44:38.585Z,6.78
2023-09-07T01:47:05.707Z,6.86
2023-09-07T01:49:35.839Z,7.22
2023-09-07T01:52:04.029Z,7.04
2023-09-07T01:57:14.739Z,7.34
2023-09-07T01:59:41.870Z,7.07
2023-09-07T02:02:09.282Z,6.96
2023-09-07T02:04:36.534Z,7.43
2023-09-07T02:07:03.721Z,7.20
2023-09-07T02:09:33.569Z,7.29
2023-09-07T02:12:00.907Z,7.47
2023-09-07T02:14:29.153Z,7.53
2023-09-07T02:16:56.797Z,7.41
2023-09-07T02:19:26.560Z,7.17
2023-09-07T02:21:54.170Z,7.26
2023-09-07T02:24:23.530Z,7.67
2023-09-07T02:26:51.773Z,7.67
2023-09-07T02:29:19.821Z,7.34
2023-09-07T02:31:58.106Z,7.54
2023-09-07T02:34:32.252Z,7.51
2023-09-07T02:39:42.633Z,7.70
2023-09-07T02:48:08.651Z,7.71
2023-09-07T02:50:36.809Z,7.69
2023-09-07T02:53:07.440Z,7.54
2023-09-07T02:55:54.391Z,7.52
2023-09-07T02:58:25.218Z,7.56
2023-09-07T03:00:59.814Z,8.00
2023-09-07T03:06:14.701Z,8.04
2023-09-07T03:08:42.037Z,8.24
2023-09-07T03:11:10.789Z,7.84
2023-09-07T03:13:38.158Z,7.78
2023-09-07T03:16:08.221Z,8.18
2023-09-07T03:18:39.168Z,8.02
2023-09-07T03:27:08.642Z,8.24
2023-09-07T03:33:06.523Z,8.19
2023-09-07T03:47:20.701Z,8.09
2023-09-07T03:50:20.831Z,8.28
2023-09-07T07:04:50.690Z,9.89
2023-09-07T07:07:18.211Z,9.24
2023-09-07T07:09:44.955Z,9.07
2023-09-07T07:12:11.522Z,9.48
2023-09-07T07:14:38.113Z,8.96
2023-09-07T07:17:04.707Z,9.61
2023-09-07T07:19:32.434Z,9.67
2023-09-07T07:21:59.041Z,9.24
2023-09-07T07:24:25.623Z,9.14
2023-09-07T07:26:52.149Z,9.30
2023-09-07T07:29:18.776Z,9.54
2023-09-07T07:31:45.339Z,9.65
2023-09-07T07:34:11.935Z,9.33
2023-09-07T07:36:38.509Z,9.16
2023-09-07T07:39:06.085Z,9.90
2023-09-07T07:41:32.649Z,9.39
2023-09-07T07:43:59.219Z,10.02
2023-09-07T07:46:26.118Z,12.33
2023-09-07T07:48:52.916Z,10.61
2023-09-07T07:51:19.602Z,9.72
2023-09-07T07:53:46.317Z,10.25
2023-09-07T07:56:19.725Z,10.07
2023-09-07T07:58:46.376Z,9.73
2023-09-07T08:01:20.550Z,9.65
2023-09-07T08:03:47.568Z,10.04
2023-09-07T08:06:14.443Z,10.03
2023-09-07T08:08:43.505Z,9.98
2023-09-07T08:11:10.181Z,9.87
2023-09-07T08:13:37.050Z,10.10
2023-09-07T08:16:05.320Z,10.43
2023-09-07T08:18:35.184Z,10.16
2023-09-07T08:21:02.474Z,9.89
2023-09-07T08:23:29.263Z,10.39
2023-09-07T08:25:55.955Z,10.31
2023-09-07T08:28:22.588Z,11.11
2023-09-07T08:30:53.351Z,10.70
2023-09-07T08:33:21.096Z,10.04
2023-09-07T08:35:53.023Z,10.45
2023-09-07T08:38:19.894Z,10.58
2023-09-07T08:40:46.565Z,10.32
2023-09-07T08:43:14.033Z,10.37
2023-09-07T08:45:51.636Z,10.54
2023-09-07T08:48:19.984Z,10.69
2023-09-07T08:50:46.947Z,10.33
2023-09-07T08:53:13.607Z,10.46
2023-09-07T08:55:40.497Z,10.35
2023-09-07T08:58:07.293Z,10.39
2023-09-07T09:00:35.005Z,10.44
2023-09-07T09:03:02.644Z,10.58
2023-09-07T09:05:31.056Z,11.10
2023-09-07T09:08:05.084Z,11.04
2023-09-07T09:10:31.878Z,11.60
2023-09-07T09:12:59.274Z,11.50
2023-09-07T09:15:26.285Z,12.67
2023-09-07T09:17:53.110Z,11.05
2023-09-07T09:20:26.976Z,11.40
2023-09-07T09:22:55.199Z,10.79
2023-09-07T09:25:23.234Z,11.01
2023-09-07T09:27:49.894Z,10.95
2023-09-07T09:30:16.601Z,10.87
2023-09-07T09:32:44.331Z,10.38
2023-09-07T09:35:11.416Z,10.95
2023-09-07T09:37:45.413Z,11.97
2023-09-07T09:40:14.045Z,10.58
2023-09-07T09:42:43.685Z,11.07
2023-09-07T09:45:11.687Z,10.77
2023-09-07T09:47:43.140Z,11.45
2023-09-07T09:50:12.069Z,11.02
2023-09-07T09:52:39.928Z,10.94
2023-09-07T09:55:08.675Z,10.62
2023-09-07T09:57:38.486Z,11.06
2023-09-07T10:00:06.616Z,11.15
2023-09-07T10:02:38.520Z,10.63
2023-09-07T10:05:05.732Z,10.68
2023-09-07T10:07:43.957Z,11.17
2023-09-07T10:10:13.826Z,11.09
2023-09-07T10:12:42.128Z,11.44
2023-09-07T10:15:21.377Z,11.18
2023-09-07T10:17:48.209Z,10.84
2023-09-07T10:20:14.901Z,11.71
2023-09-07T10:22:41.634Z,11.16
2023-09-07T10:25:20.529Z,12.22
2023-09-07T10:27:47.141Z,11.04
2023-09-07T10:30:14.779Z,10.79
2023-09-07T10:32:41.636Z,10.81
2023-09-07T10:35:20.142Z,11.06
2023-09-07T10:37:47.284Z,10.72
2023-09-07T10:40:20.235Z,10.93
2023-09-07T10:42:46.910Z,10.50
2023-09-07T10:45:15.784Z,10.72
2023-09-07T10:47:46.857Z,10.20
2023-09-07T10:50:14.333Z,10.55
2023-09-07T10:52:42.242Z,10.53
2023-09-07T10:55:13.579Z,10.10
2023-09-07T10:57:45.402Z,10.00
2023-09-07T11:00:13.380Z,9.70
2023-09-07T11:02:41.080Z,9.87
2023-09-07T11:05:08.731Z,9.50
2023-09-07T11:07:35.762Z,9.33
2023-09-07T11:10:02.452Z,9.69
2023-09-07T11:12:29.009Z,9.09
2023-09-07T11:14:55.975Z,9.13
2023-09-07T11:17:31.589Z,9.01
2023-09-07T11:19:58.187Z,8.80
2023-09-07T11:22:24.950Z,9.07
2023-09-07T11:24:51.591Z,9.38
2023-09-07T11:27:19.226Z,8.56
2023-09-07T11:29:52.742Z,8.94
2023-09-07T11:32:19.383Z,8.55
2023-09-07T11:34:50.648Z,8.47
2023-09-07T11:37:18.887Z,8.72
2023-09-07T11:39:45.894Z,8.64
2023-09-07T11:42:12.643Z,8.85
2023-09-07T11:44:39.198Z,8.83
2023-09-07T11:47:05.860Z,8.69
2023-09-07T11:49:35.821Z,9.00
2023-09-07T11:52:02.658Z,8.47
2023-09-07T11:54:29.482Z,9.08
2023-09-07T11:56:56.446Z,8.33
2023-09-07T11:59:23.117Z,8.46
2023-09-07T12:01:49.807Z,8.07
2023-09-07T12:04:19.245Z,8.57
2023-09-07T12:06:46.333Z,8.64
2023-09-07T12:09:13.213Z,8.55
2023-09-07T12:11:47.730Z,8.47
2023-09-07T12:23:17.456Z,7.70
2023-09-07T13:44:55.339Z,7.90
2023-09-07T13:51:05.811Z,8.73
2023-09-07T13:53:20.281Z,8.20
2023-09-07T13:59:02.086Z,7.91
2023-09-07T14:01:57.454Z,7.75
2023-09-07T14:04:38.183Z,8.01
2023-09-07T14:07:16.530Z,7.91
2023-09-07T14:09:46.437Z,7.94
2023-09-07T14:12:13.737Z,7.99
2023-09-07T14:14:40.996Z,7.52
2023-09-07T14:17:08.148Z,7.46
2023-09-07T14:19:42.586Z,7.76
2023-09-07T14:22:09.920Z,7.29
2023-09-07T14:24:36.776Z,7.54
2023-09-07T14:27:03.740Z,7.74
2023-09-07T14:29:30.927Z,7.53
2023-09-07T14:31:57.983Z,7.45
2023-09-07T14:34:25.381Z,7.48
2023-09-07T14:36:52.581Z,7.26
2023-09-07T14:39:19.691Z,7.07
2023-09-07T14:41:46.643Z,7.18
2023-09-07T14:44:18.677Z,6.95
2023-09-07T14:46:48.370Z,7.12
2023-09-07T14:49:15.665Z,7.36
2023-09-07T14:51:42.789Z,7.36
2023-09-07T14:54:09.975Z,7.40
2023-09-07T14:56:37.228Z,7.24
2023-09-07T14:59:04.156Z,7.35
2023-09-07T15:01:31.246Z,7.07
2023-09-07T15:03:58.154Z,6.84
2023-09-07T15:06:25.196Z,7.15
2023-09-07T15:08:52.097Z,15.55
2023-09-07T15:11:18.881Z,22.91
2023-09-07T15:13:45.758Z,13.22
2023-09-07T15:16:12.788Z,7.82
2023-09-07T15:21:06.859Z,6.99
2023-09-07T15:23:33.737Z,7.05
2023-09-07T15:26:01.303Z,7.39
2023-09-07T15:28:28.329Z,6.80
2023-09-07T15:30:56.738Z,6.82
2023-09-07T15:33:24.737Z,6.71
2023-09-07T15:35:56.921Z,6.92
2023-09-07T15:38:27.226Z,7.09
2023-09-07T15:41:00.959Z,7.20
2023-09-07T15:43:28.460Z,6.72
2023-09-07T15:45:56.247Z,7.07
2023-09-07T15:48:26.666Z,7.22
2023-09-07T15:57:21.713Z,6.79
2023-09-07T15:59:49.241Z,6.59
2023-09-07T16:02:16.404Z,6.59
2023-09-07T16:04:44.108Z,6.65
2023-09-07T16:10:13.692Z,6.66
2023-09-07T16:12:43.707Z,6.64
2023-09-07T16:15:12.372Z,7.11
2023-09-07T16:17:43.547Z,7.13
2023-09-07T16:20:11.901Z,6.84
2023-09-07T16:22:42.877Z,6.71
2023-09-07T16:25:10.639Z,6.76
2023-09-07T16:27:37.697Z,6.62
2023-09-07T16:30:13.094Z,6.90
2023-09-07T16:32:41.658Z,6.30
2023-09-07T16:37:53.034Z,7.12
2023-09-07T16:40:22.223Z,7.13
2023-09-07T16:42:49.969Z,7.20
2023-09-07T16:45:17.958Z,6.93
2023-09-07T16:47:48.711Z,6.71
2023-09-07T16:50:15.972Z,7.04
2023-09-07T16:52:42.912Z,7.00
2023-09-07T16:55:14.453Z,7.32
2023-09-07T16:57:43.089Z,6.72
2023-09-07T17:02:56.765Z,6.77
2023-09-07T17:05:29.777Z,6.83
2023-09-07T17:10:48.932Z,7.20
2023-09-07T17:13:15.675Z,7.66
2023-09-07T17:15:42.334Z,7.12
2023-09-07T17:18:13.242Z,8.05
2023-09-07T17:20:40.531Z,9.10
2023-09-07T17:23:07.572Z,18.09
2023-09-07T17:25:34.730Z,8.24
2023-09-07T17:28:01.952Z,8.72
2023-09-07T17:30:30.051Z,8.34
2023-09-07T17:32:56.908Z,8.76
2023-09-07T17:35:24.591Z,7.23
2023-09-07T17:37:52.633Z,8.01
2023-09-07T17:40:19.261Z,9.22
2023-09-07T17:42:45.987Z,9.59
2023-09-07T17:45:12.732Z,10.31
2023-09-07T17:47:39.487Z,8.95
2023-09-07T17:50:07.032Z,10.31
2023-09-07T17:52:34.262Z,8.99
2023-09-07T17:55:01.166Z,9.21
2023-09-07T17:57:27.890Z,9.31
2023-09-07T17:59:54.491Z,9.01
2023-09-07T18:02:31.129Z,9.19
2023-09-07T18:05:01.269Z,10.70
2023-09-07T18:07:30.168Z,10.93
2023-09-07T18:09:56.725Z,10.29
2023-09-07T18:12:23.326Z,9.61
2023-09-07T18:14:49.950Z,9.86
2023-09-07T18:17:16.550Z,10.55
2023-09-07T18:19:43.078Z,9.89
2023-09-07T18:22:09.614Z,9.83
2023-09-07T18:24:36.254Z,9.49
2023-09-07T18:27:03.649Z,10.47
2023-09-07T18:29:30.370Z,10.77
2023-09-07T18:31:57.130Z,11.29
2023-09-07T18:34:24.187Z,10.67
2023-09-07T18:36:51.202Z,10.14
2023-09-07T18:39:17.918Z,9.99
2023-09-07T18:41:44.538Z,9.92
2023-09-07T18:44:11.103Z,10.35
2023-09-07T18:46:37.730Z,10.45
2023-09-07T18:49:04.610Z,11.11
2023-09-07T18:51:31.330Z,10.39
2023-09-07T18:53:57.944Z,10.81
2023-09-07T18:56:24.476Z,10.97
2023-09-07T18:58:51.128Z,11.11
2023-09-07T19:01:18.946Z,10.99
2023-09-07T19:03:54.019Z,13.49
2023-09-07T19:06:21.483Z,11.28
2023-09-07T19:08:48.176Z,10.56
2023-09-07T19:11:14.946Z,10.47
2023-09-07T19:13:41.715Z,11.16
2023-09-07T19:16:12.532Z,10.55
2023-09-07T19:18:39.116Z,11.16
2023-09-07T19:21:17.436Z,11.44
2023-09-07T19:23:49.600Z,10.93
2023-09-07T19:26:35.809Z,10.67
2023-09-07T19:29:05.033Z,10.52
2023-09-07T19:31:31.884Z,10.09
2023-09-07T19:33:58.862Z,10.77
2023-09-07T19:36:26.333Z,10.96
2023-09-07T19:38:55.304Z,11.03
2023-09-07T19:41:22.662Z,10.64
2023-09-07T19:43:50.005Z,10.59
2023-09-07T19:46:16.914Z,10.26
2023-09-07T19:49:06.905Z,10.55
2023-09-07T19:51:33.915Z,10.75
2023-09-07T19:54:00.837Z,10.30
2023-09-07T19:56:27.859Z,10.12
2023-09-07T19:58:55.287Z,10.45
2023-09-07T20:01:23.309Z,9.93
2023-09-07T20:03:51.945Z,9.84
2023-09-07T20:06:21.086Z,10.35
2023-09-07T20:08:48.197Z,10.11
2023-09-07T20:17:07.135Z,9.97
2023-09-07T20:25:34.840Z,10.11
2023-09-07T20:28:01.756Z,10.30
2023-09-07T20:30:29.278Z,9.97
2023-09-07T20:32:57.649Z,10.41
2023-09-07T20:35:25.049Z,9.94
2023-09-07T20:37:52.222Z,9.97
2023-09-07T20:40:22.495Z,10.15
2023-09-07T20:42:51.617Z,10.32
2023-09-07T20:45:18.518Z,10.02
2023-09-07T20:47:45.282Z,10.31
2023-09-07T20:50:12.058Z,10.05
2023-09-07T20:52:38.865Z,9.67
2023-09-07T20:55:06.221Z,9.77
2023-09-07T20:57:33.110Z,9.90
2023-09-07T21:00:00.028Z,9.95
2023-09-07T21:02:27.044Z,10.20
2023-09-07T21:04:53.778Z,10.43
2023-09-07T21:10:05.214Z,10.27
2023-09-07T21:12:32.092Z,10.00
2023-09-07T21:14:59.083Z,9.87
2023-09-07T21:17:26.118Z,10.22
2023-09-07T21:19:53.328Z,10.41
2023-09-07T21:22:20.956Z,10.51
2023-09-07T21:24:48.871Z,10.22
2023-09-07T21:30:07.009Z,10.49
2023-09-07T21:32:47.855Z,10.41
2023-09-07T21:38:14.817Z,10.56
2023-09-07T21:40:43.331Z,11.30
2023-09-07T21:43:15.705Z,10.50
2023-09-07T21:45:44.843Z,10.65
2023-09-07T21:48:14.773Z,10.96
2023-09-07T21:50:47.067Z,10.88
2023-09-07T21:53:20.716Z,10.50
2023-09-07T21:55:48.382Z,10.21
2023-09-07T21:58:20.121Z,10.44
2023-09-07T22:00:51.102Z,10.27
2023-09-07T22:03:20.969Z,9.94
2023-09-07T22:08:48.798Z,10.77
2023-09-07T22:11:16.398Z,10.74
2023-09-07T22:13:44.148Z,10.85
2023-09-07T22:16:11.964Z,10.06
2023-09-07T22:18:38.925Z,10.57
2023-09-07T22:21:06.755Z,10.83
2023-09-07T22:23:42.694Z,10.53
2023-09-07T22:26:11.205Z,10.93
2023-09-07T22:28:38.276Z,10.25
2023-09-07T22:31:05.222Z,10.87
2023-09-07T22:33:32.130Z,10.26
2023-09-07T22:35:59.211Z,10.48
2023-09-07T22:38:26.028Z,10.62
2023-09-07T22:40:57.233Z,10.53
2023-09-07T22:43:25.222Z,11.01
2023-09-07T22:45:52.152Z,10.50
2023-09-07T22:48:19.081Z,10.49
2023-09-07T22:50:46.348Z,10.50
2023-09-07T22:53:13.266Z,10.73
2023-09-07T22:55:43.333Z,10.81
2023-09-07T22:58:11.384Z,10.65
2023-09-07T23:00:41.455Z,10.94
2023-09-07T23:03:08.382Z,10.92
2023-09-07T23:05:35.528Z,11.48
2023-09-07T23:08:03.160Z,11.61
2023-09-07T23:10:30.129Z,10.60
2023-09-07T23:12:57.099Z,10.98
2023-09-07T23:15:24.047Z,10.92
2023-09-07T23:17:51.025Z,10.71
2023-09-07T23:20:18.442Z,10.84
2023-09-07T23:22:46.489Z,10.94
2023-09-07T23:25:13.756Z,10.77
2023-09-07T23:27:40.766Z,10.52
2023-09-07T23:30:09.928Z,10.76
2023-09-07T23:32:39.528Z,10.90
2023-09-07T23:35:09.273Z,10.75
2023-09-07T23:37:39.055Z,10.47
2023-09-07T23:40:07.705Z,11.22
2023-09-07T23:42:34.562Z,10.83
2023-09-07T23:45:01.348Z,11.06
2023-09-07T23:47:28.245Z,11.06
2023-09-07T23:49:55.446Z,11.33
2023-09-07T23:52:22.444Z,10.54
2023-09-07T23:54:49.562Z,11.16
2023-09-07T23:57:16.748Z,11.06
2023-09-07T23:59:43.669Z,11.02
